• Join FlightAware (Why Join?)
  • Login
  • US Flag 
01:42AM EDT


 

Airport Tracker/Info


-or-


 

Live Flight TrackerFlight Track Log ✈ MAL7070 ✈ 09-May-2013 ✈ CYYC - CYYZ

Flight Track Log - Related Links

Times and Time Zones

All times are in EDT time to prevent confusion due to time zone crossing. See the MAL7070 flight status page for this flight to view local times or setup timezone preferences in your user account.

Time Position Orientation Groundspeed Altitude Reporting Facility
EDT Latitude Longitude Course Direction KTS MPH feet Rate Location/Type
10:29PM 51.1190 -114.0220 360° North 166 191 3,800  Level FlightAware
10:29PM 51.1310 -114.0220 360° North 160 184 4,600 2,400 Climbing FlightAware
10:30PM 51.1550 -114.0230 359° North 197 227 5,600 1,740 Climbing FlightAware
10:30PM 51.1800 -114.0120 15° North 228 262 6,200 1,500 Climbing FlightAware
10:31PM 51.1890 -113.9900 57° Northeast 260 299 6,600 1,920 Climbing FlightAware
10:31PM 51.1920 -113.9710 76° East 270 311 7,000 2,760 Climbing FlightAware
10:31PM 51.1860 -113.9330 104° East 278 320 8,000 3,180 Climbing FlightAware
10:31PM 51.1750 -113.8840 110° East 288 331 9,400 2,460 Climbing FlightAware
10:32PM 51.1540 -113.7870 109° East 332 382 10,900 1,740 Climbing FlightAware
10:33PM 51.1330 -113.6830 108° East 384 442 11,900 2,100 Climbing FlightAware
10:34PM 51.1120 -113.5600 105° East 399 459 13,900 2,700 Climbing FlightAware
10:34PM 51.1040 -113.4380 96° East 411 473 15,800 2,700 Climbing FlightAware
10:35PM 51.0990 -113.3190 94° East 422 486 17,500 2,400 Climbing FlightAware
10:36PM 51.0940 -113.2060 94° East 433 498 18,800 2,220 Climbing FlightAware
10:36PM 51.0880 -113.0480 93° East 445 512 20,700 2,160 Climbing FlightAware
10:37PM 51.0810 -112.8960 94° East 457 526 22,300 2,040 Climbing FlightAware
10:38PM 51.0750 -112.7570 94° East 467 537 23,600 1,800 Climbing FlightAware
10:38PM 51.0690 -112.6220 94° East 477 549 24,700 1,620 Climbing FlightAware
10:39PM 51.0610 -112.4630 95° East 488 562 25,900 1,620 Climbing FlightAware
10:40PM 51.0530 -112.3190 95° East 495 570 27,000 1,560 Climbing FlightAware
10:41PM 51.0440 -112.1720 96° East 502 578 28,000 1,620 Climbing FlightAware
10:41PM 51.0340 -112.0070 95° East 505 581 29,300 1,860 Climbing FlightAware
10:42PM 51.0260 -111.8600 95° East 498 573 30,700 2,040 Climbing FlightAware
10:43PM 51.0160 -111.6950 95° East 489 563 32,200 1,920 Climbing FlightAware
10:43PM 51.0070 -111.5570 96° East 482 555 33,500 1,320 Climbing FlightAware
10:44PM 50.9970 -111.3890 95° East 481 554 34,200 1,500 Climbing FlightAware
10:45PM 50.9850 -111.2130 96° East 480 552 36,000 1,680 Climbing FlightAware
10:46PM 50.9750 -111.0630 96° East 480 552 36,800 1,020 Climbing FlightAware
10:46PM 50.9650 -110.9260 97° East 484 557 37,400 1,020 Climbing FlightAware
10:47PM 50.9540 -110.7640 96° East 482 555 38,300 1,080 Climbing FlightAware
10:48PM 50.9440 -110.6250 96° East 472 543 39,000 480 Climbing FlightAware
10:49PM 50.9330 -110.4700 96° East 461 531 39,000  Level FlightAware
10:50PM 50.9100 -110.1600 97° East 473 544 39,000  Level FlightAware
10:51PM 50.8910 -109.9030 97° East 480 552 39,000  Level FlightAware
10:52PM 50.8720 -109.6610 97° East 483 556 39,000  Level FlightAware
10:53PM 50.8620 -109.5230 96° East 483 556 39,000  Level FlightAware
10:54PM 50.8460 -109.3260 97° East 488 562 39,000  Level FlightAware
10:55PM 50.8380 -109.2050 96° East 488 562 39,000  Level FlightAware
10:55PM 50.8300 -109.0840 96° East 488 562 39,000  Level FlightAware
10:57PM 50.7870 -108.6570 99° East 486 559 39,000  Level FlightAware
10:58PM 50.7780 -108.5460 97° East 486 559 39,000  Level FlightAware
10:59PM 50.7670 -108.3960 97° East 486 559 39,000  Level FlightAware
10:59PM 50.7570 -108.2760 97° East 486 559 39,000  Level FlightAware
11:00PM 50.7340 -108.0720 100° East 484 557 39,000  Level FlightAware
11:01PM 50.7200 -107.9300 99° East 482 555 39,000  Level FlightAware
11:02PM 50.7040 -107.7540 98° East 482 555 39,000  Level FlightAware
11:03PM 50.6900 -107.6050 98° East 482 555 39,000  Level FlightAware
11:03PM 50.6800 -107.4870 98° East 482 555 39,000  Level FlightAware
11:04PM 50.6690 -107.3690 98° East 482 555 39,000  Level FlightAware
11:05PM 50.6420 -107.1450 101° East 484 557 39,000  Level FlightAware
11:05PM 50.6330 -107.0480 98° East 484 557 39,000  Level FlightAware
11:06PM 50.6090 -106.8260 100° East 484 557 39,000  Level FlightAware
11:07PM 50.5960 -106.7000 99° East 486 559 39,000  Level FlightAware
11:07PM 50.5800 -106.5470 99° East 487 560 39,000  Level FlightAware
11:08PM 50.5640 -106.4070 100° East 487 560 39,000  Level FlightAware
11:09PM 50.5500 -106.2780 100° East 489 563 39,000  Level FlightAware
11:10PM 50.5310 -106.1070 100° East 488 562 39,000  Level FlightAware
11:10PM 50.5170 -105.9810 100° East 489 563 39,000  Level FlightAware
11:11PM 50.5000 -105.8240 100° East 488 562 39,000  Level FlightAware
11:12PM 50.4810 -105.6640 101° East 488 562 39,000  Level FlightAware
11:12PM 50.4610 -105.4900 100° East 490 564 39,000  Level FlightAware
11:13PM 50.4440 -105.3470 101° East 490 564 39,000  Level FlightAware
11:14PM 50.4260 -105.1970 101° East 489 563 39,000  Level FlightAware
11:15PM 50.4050 -105.0200 100° East 489 563 39,000  Level FlightAware
11:15PM 50.3900 -104.9020 101° East 488 562 39,000  Level FlightAware
11:16PM 50.3700 -104.7390 101° East 489 563 39,000  Level FlightAware
11:17PM 50.3530 -104.5990 101° East 490 564 39,000  Level FlightAware
11:17PM 50.3340 -104.4540 102° East 489 563 39,000  Level FlightAware
11:18PM 50.3160 -104.3120 101° East 489 563 39,000  Level FlightAware
11:19PM 50.2960 -104.1600 102° East 489 563 39,000  Level FlightAware
11:20PM 50.2770 -104.0070 101° East 490 564 39,000  Level FlightAware
11:20PM 50.2600 -103.8790 102° East 492 566 39,000  Level FlightAware
11:21PM 50.2430 -103.7500 102° East 492 566 39,000  Level FlightAware
11:22PM 50.2190 -103.5760 102° East 492 566 39,000  Level FlightAware
11:22PM 50.1980 -103.4200 102° East 492 566 39,000  Level FlightAware
11:23PM 50.1790 -103.2780 102° East 491 565 39,000  Level FlightAware
11:24PM 50.1540 -103.0980 102° East 491 565 39,000  Level FlightAware
11:25PM 50.1360 -102.9710 102° East 491 565 39,000  Level FlightAware
11:25PM 50.1140 -102.8190 103° East 492 566 39,000  Level FlightAware
11:26PM 50.0990 -102.7040 101° East 492 566 39,000  Level FlightAware
11:27PM 50.0740 -102.5390 103° East 494 568 39,000  Level FlightAware
11:27PM 50.0550 -102.4040 102° East 494 568 39,000  Level FlightAware
11:28PM 50.0360 -102.2680 102° East 494 568 39,000  Level FlightAware
11:29PM 50.0200 -102.1500 102° East 494 568 39,000  Level FlightAware
11:30PM 49.9810 -101.9090 104° East 496 571 39,000  Level FlightAware
11:30PM 49.9600 -101.7670 103° East 496 571 39,000  Level FlightAware
11:31PM 49.9350 -101.6080 104° East 496 571 39,000  Level FlightAware
11:32PM 49.9070 -101.4250 103° East 495 570 39,000  Level FlightAware
11:33PM 49.8860 -101.2900 104° East 495 570 39,000  Level FlightAware
11:33PM 49.8600 -101.1250 104° East 494 568 39,000  Level FlightAware
11:34PM 49.8360 -100.9750 104° East 492 566 39,000  Level FlightAware
11:35PM 49.8140 -100.8380 104° East 491 565 39,000  Level FlightAware
11:35PM 49.7890 -100.6850 104° East 490 564 39,000  Level FlightAware
11:36PM 49.7670 -100.5490 104° East 488 562 39,000  Level FlightAware
11:37PM 49.7450 -100.4140 104° East 489 563 39,000  Level FlightAware
11:38PM 49.7190 -100.2620 105° East 488 562 39,000  Level FlightAware
11:38PM 49.6970 -100.1270 104° East 488 562 39,000  Level FlightAware
11:39PM 49.6720 -99.9760 104° East 487 560 39,000  Level FlightAware
11:40PM 49.6520 -99.8580 105° East 487 560 39,000  Level FlightAware
11:40PM 49.6260 -99.7080 105° East 487 560 39,000  Level FlightAware
11:41PM 49.6000 -99.5600 105° East 487 560 39,000  Level FlightAware
11:42PM 49.5760 -99.4190 105° East 488 562 39,000  Level FlightAware
11:42PM 49.5520 -99.2850 105° East 490 564 39,000  Level FlightAware
11:43PM 49.5260 -99.1370 105° East 491 565 39,000  Level FlightAware
11:44PM 49.5020 -99.0060 106° East 492 566 39,000  Level FlightAware
11:45PM 49.4750 -98.8540 105° East 493 567 39,000  Level FlightAware
11:45PM 49.4490 -98.7120 106° East 494 568 39,000  Level FlightAware
11:46PM 49.4250 -98.5810 106° East 494 568 39,000  Level FlightAware
11:47PM 49.3970 -98.4320 106° East 495 570 39,000  Level FlightAware
11:47PM 49.3800 -98.3380 105° East 496 571 39,000  Level FlightAware
11:48PM 49.3450 -98.1520 106° East 497 572 39,000  Level FlightAware
11:49PM 49.3260 -98.0420 105° East 497 572 39,000  Level FlightAware
11:49PM 49.3060 -97.9260 105° East 497 572 39,000  Level FlightAware
11:50PM 49.2800 -97.7810 105° East 497 572 39,000  Level FlightAware
11:51PM 49.2600 -97.6660 105° East 497 572 39,000  Level FlightAware
11:51PM 49.2400 -97.5500 105° East 497 572 39,000  Level FlightAware
11:52PM 49.2200 -97.4340 105° East 497 572 39,000  Level FlightAware
11:53PM 49.1990 -97.3190 106° East 497 572 39,000  Level FlightAware
11:53PM 49.1350 -97.0600 111° Southeast 497 572 39,000  Level FlightAware
11:54PM 49.1080 -96.9200 106° East 497 572 39,000  Level FlightAware
11:56PM 49.0410 -96.5960 107° East 496 571 39,000  Level FlightAware
11:56PM 49.0130 -96.4590 107° East 497 572 39,000  Level FlightAware
11:57PM 48.9840 -96.3190 107° East 496 571 39,000  Level FlightAware
11:58PM 48.9560 -96.1830 107° East 495 570 39,000  Level FlightAware
11:59PM 48.9250 -96.0370 108° East 496 571 39,000  Level FlightAware
11:59PM 48.8960 -95.8970 107° East 496 571 39,000  Level FlightAware
12:00AM 48.8610 -95.7270 107° East 496 571 39,000  Level FlightAware
12:01AM 48.8330 -95.5990 108° East 497 572 39,000  Level FlightAware
12:02AM 48.7980 -95.4370 108° East 498 573 39,000  Level FlightAware
12:02AM 48.7600 -95.2600 108° East 500 575 39,000  Level FlightAware
12:03AM 48.7350 -95.1480 109° East 501 577 39,000  Level FlightAware
12:04AM 48.6910 -94.9440 108° East 500 575 39,000  Level FlightAware
12:05AM 48.6670 -94.8310 108° East 500 575 39,000  Level FlightAware
12:05AM 48.6420 -94.7180 108° East 500 575 39,000  Level FlightAware
12:06AM 48.6120 -94.5760 108° East 500 575 39,000  Level FlightAware
12:07AM 48.5880 -94.4630 108° East 500 575 39,000  Level FlightAware
12:08AM 48.5630 -94.3500 108° East 500 575 39,000  Level FlightAware
12:08AM 48.5010 -94.1010 111° Southeast 496 571 39,000  Level FlightAware
12:09AM 48.4670 -93.9580 110° East 495 570 39,000  Level FlightAware
12:10AM 48.4430 -93.8530 109° East 495 570 39,000  Level FlightAware
12:11AM 48.3960 -93.6520 109° East 494 568 39,000  Level FlightAware
12:11AM 48.3630 -93.5130 110° East 496 571 39,000  Level FlightAware
12:12AM 48.3360 -93.4000 110° East 495 570 39,000  Level FlightAware
12:13AM 48.2870 -93.1960 110° East 497 572 39,000  Level FlightAware
12:14AM 48.2510 -93.0470 110° East 496 571 39,000  Level FlightAware
12:14AM 48.2220 -92.9240 109° East 495 570 39,000  Level FlightAware
12:15AM 48.1920 -92.7990 110° East 495 570 39,000  Level FlightAware
12:16AM 48.1580 -92.6600 110° East 494 568 39,000  Level FlightAware
12:16AM 48.1260 -92.5290 110° East 494 568 39,000  Level FlightAware
12:17AM 48.0950 -92.4040 110° East 493 567 39,000  Level FlightAware
12:18AM 48.0570 -92.2540 111° Southeast 492 566 39,000  Level FlightAware
12:18AM 48.0250 -92.1270 111° Southeast 493 567 39,000  Level FlightAware
12:19AM 47.9930 -92.0000 111° Southeast 493 567 39,000  Level FlightAware
12:20AM 47.9580 -91.8630 111° Southeast 491 565 39,000  Level FlightAware
12:21AM 47.9250 -91.7330 111° Southeast 491 565 39,000  Level FlightAware
12:21AM 47.8890 -91.5910 111° Southeast 491 565 39,000  Level FlightAware
12:22AM 47.8560 -91.4620 111° Southeast 491 565 39,000  Level FlightAware
12:23AM 47.8240 -91.3420 112° Southeast 492 566 39,000  Level FlightAware
12:23AM 47.7850 -91.1940 111° Southeast 493 567 39,000  Level FlightAware
12:24AM 47.7520 -91.0680 111° Southeast 493 567 39,000  Level FlightAware
12:25AM 47.7160 -90.9290 111° Southeast 493 567 39,000  Level FlightAware
12:25AM 47.6860 -90.8160 111° Southeast 494 568 39,000  Level FlightAware
12:26AM 47.6440 -90.6610 112° Southeast 494 568 39,000  Level FlightAware
12:27AM 47.6100 -90.5360 112° Southeast 495 570 39,000  Level FlightAware
12:28AM 47.5760 -90.4060 111° Southeast 497 572 39,000  Level FlightAware
12:28AM 47.5430 -90.2860 112° Southeast 498 573 39,000  Level FlightAware
12:29AM 47.5060 -90.1510 112° Southeast 498 573 39,000  Level FlightAware
12:30AM 47.4690 -90.0180 112° Southeast 499 574 39,000  Level FlightAware
12:30AM 47.4290 -89.8730 112° Southeast 499 574 39,000  Level FlightAware
12:31AM 47.3930 -89.7440 112° Southeast 497 572 39,000  Level FlightAware
12:32AM 47.3590 -89.6220 112° Southeast 495 570 39,000  Level FlightAware
12:32AM 47.3260 -89.5040 112° Southeast 494 568 39,000  Level FlightAware
12:33AM 47.2750 -89.3240 113° Southeast 494 568 39,000  Level FlightAware
12:34AM 47.2440 -89.2160 113° Southeast 495 570 39,000  Level FlightAware
12:35AM 47.2090 -89.0860 112° Southeast 495 570 39,000  Level FlightAware
12:35AM 47.1790 -88.9800 113° Southeast 495 570 39,000  Level FlightAware
12:36AM 47.1430 -88.8470 112° Southeast 495 570 39,000  Level FlightAware
12:37AM 47.1140 -88.7410 112° Southeast 495 570 39,000  Level FlightAware
12:38AM 47.0850 -88.6350 112° Southeast 495 570 39,000  Level FlightAware
12:38AM 47.0550 -88.5290 113° Southeast 495 570 39,000  Level FlightAware
12:39AM 47.0260 -88.4230 112° Southeast 495 570 39,000  Level FlightAware
12:40AM 46.9900 -88.2900 112° Southeast 495 570 39,000  Level FlightAware
12:40AM 46.9610 -88.1850 112° Southeast 495 570 39,000  Level FlightAware
12:41AM 46.9310 -88.0790 112° Southeast 495 570 39,000  Level FlightAware
12:42AM 46.9020 -87.9730 112° Southeast 495 570 39,000  Level FlightAware
12:42AM 46.8730 -87.8680 112° Southeast 495 570 39,000  Level FlightAware
12:43AM 46.8370 -87.7360 112° Southeast 495 570 39,000  Level FlightAware
12:44AM 46.8070 -87.6300 112° Southeast 495 570 39,000  Level FlightAware
12:48AM 46.4840 -86.6820 116° Southeast 505 581 39,000  Level FlightAware
12:48AM 46.4390 -86.5400 115° Southeast 506 582 39,000  Level FlightAware
12:49AM 46.3940 -86.4020 115° Southeast 507 583 39,000  Level FlightAware
12:50AM 46.3550 -86.2750 114° Southeast 507 583 39,000  Level FlightAware
12:50AM 46.3170 -86.1580 115° Southeast 508 585 39,000  Level FlightAware
12:51AM 46.2760 -86.0320 115° Southeast 509 586 39,000  Level FlightAware
12:52AM 46.2320 -85.9000 116° Southeast 510 587 39,000  Level FlightAware
12:52AM 46.1910 -85.7740 115° Southeast 510 587 39,000  Level FlightAware
12:53AM 46.1440 -85.6290 115° Southeast 511 588 39,000  Level FlightAware
12:54AM 46.1010 -85.4970 115° Southeast 512 589 39,000  Level FlightAware
12:55AM 46.0600 -85.3740 116° Southeast 513 590 39,000  Level FlightAware
12:55AM 46.0190 -85.2510 116° Southeast 513 590 39,000  Level FlightAware
12:56AM 45.9710 -85.1090 116° Southeast 513 590 39,000  Level FlightAware
12:57AM 45.9290 -84.9830 116° Southeast 513 590 39,000  Level FlightAware
12:57AM 45.8840 -84.8480 116° Southeast 514 592 39,000  Level FlightAware
12:58AM 45.8430 -84.7290 116° Southeast 513 590 39,000  Level FlightAware
12:59AM 45.7940 -84.5850 116° Southeast 514 592 39,000  Level FlightAware
01:00AM 45.7540 -84.4660 116° Southeast 514 592 39,000  Level FlightAware
01:00AM 45.7110 -84.3440 117° Southeast 514 592 39,000  Level FlightAware
01:01AM 45.6650 -84.2100 116° Southeast 514 592 39,000  Level FlightAware
01:02AM 45.6210 -84.0860 117° Southeast 514 592 39,000  Level FlightAware
01:02AM 45.5720 -83.9460 117° Southeast 515 593 39,000  Level FlightAware
01:03AM 45.5300 -83.8280 117° Southeast 515 593 39,000  Level FlightAware
01:04AM 45.4880 -83.7070 116° Southeast 515 593 39,000  Level FlightAware
01:05AM 45.4230 -83.5220 117° Southeast 516 594 39,000  Level FlightAware
01:05AM 45.3820 -83.4100 117° Southeast 515 593 39,000  Level FlightAware
01:06AM 45.3370 -83.2830 117° Southeast 515 593 39,000  Level FlightAware
01:07AM 45.2940 -83.1630 117° Southeast 513 590 39,000  Level FlightAware
01:07AM 45.2450 -83.0290 117° Southeast 511 588 39,000  Level FlightAware
01:08AM 45.2020 -82.9100 117° Southeast 509 586 39,000  Level FlightAware
01:09AM 45.1540 -82.7770 117° Southeast 508 585 39,000  Level FlightAware
01:10AM 45.1050 -82.6440 118° Southeast 508 585 39,000  Level FlightAware
01:10AM 45.0610 -82.5260 118° Southeast 507 583 39,000  Level FlightAware
01:11AM 45.0180 -82.4090 117° Southeast 506 582 39,000  Level FlightAware
01:12AM 44.9700 -82.2800 118° Southeast 506 582 39,000  Level FlightAware
01:12AM 44.9380 -82.1950 118° Southeast 506 582 39,000  Level FlightAware
01:13AM 44.8800 -82.0410 118° Southeast 505 581 39,000  Level FlightAware
01:14AM 44.8390 -81.9310 118° Southeast 505 581 39,000  Level FlightAware
01:14AM 44.7900 -81.8030 118° Southeast 505 581 39,000 -300 Level FlightAware
01:15AM 44.7630 -81.7290 117° Southeast 499 574 38,600 -2,040 Descending FlightAware
01:16AM 44.7030 -81.5710 118° Southeast 502 578 36,300 -2,700 Descending FlightAware
01:17AM 44.6640 -81.4730 119° Southeast 510 587 34,600 -2,280 Descending FlightAware
01:17AM 44.6260 -81.3730 118° Southeast 514 592 32,900 -2,880 Descending FlightAware
01:18AM 44.5720 -81.2330 118° Southeast 509 586 30,800 -2,400 Descending FlightAware
01:19AM 44.5410 -81.1520 118° Southeast 499 574 29,700 -2,280 Descending FlightAware
01:19AM 44.4920 -81.0260 119° Southeast 490 564 28,000 -2,520 Descending FlightAware
01:20AM 44.4390 -80.8920 119° Southeast 479 551 26,000 -2,340 Descending FlightAware
01:21AM 44.3960 -80.7830 119° Southeast 467 537 24,300 -2,580 Descending FlightAware
01:21AM 44.3520 -80.6700 119° Southeast 456 525 22,600 -2,520 Descending FlightAware
01:22AM 44.3120 -80.5690 119° Southeast 443 510 21,000 -2,280 Descending FlightAware
01:23AM 44.2770 -80.4820 119° Southeast 435 501 19,600 -2,940 Descending FlightAware
01:24AM 44.2080 -80.3070 119° Southeast 417 480 16,600 -3,120 Descending FlightAware
01:24AM 44.1720 -80.2200 120° Southeast 402 463 15,000 -2,400 Descending FlightAware
01:25AM 44.1300 -80.1350 125° Southeast 383 441 13,400 -2,400 Descending FlightAware
01:26AM 44.0740 -80.0820 146° Southeast 355 409 11,800 -2,280 Descending FlightAware
01:26AM 44.0170 -80.0560 162° South 328 377 10,400 -1,560 Descending FlightAware
01:27AM 43.9540 -80.0290 163° South 269 310 9,500 -1,560 Descending FlightAware
01:28AM 43.9230 -80.0160 163° South 267 307 8,500 -2,520 Descending FlightAware
01:28AM 43.8930 -80.0030 163° South 266 306 7,400 -2,160 Descending FlightAware
01:28AM 43.8690 -79.9940 165° South 265 305 6,900 -1,500 Descending FlightAware
01:29AM 43.8410 -80.0050 196° South 255 293 6,300 -1,080 Descending FlightAware
01:29AM 43.8160 -80.0250 210° Southwest 250 288 6,000 -480 Descending FlightAware
01:29AM 43.8030 -80.0350 209° Southwest 238 274 6,000 -240 Level FlightAware
01:30AM 43.7860 -80.0430 199° South 226 260 5,900 -600 Descending FlightAware
01:30AM 43.7710 -80.0460 188° South 222 255 5,700 -1,080 Descending FlightAware
01:30AM 43.7500 -80.0500 188° South 222 255 5,300 -1,080 Descending FlightAware
01:31AM 43.7310 -80.0380 155° Southeast 223 257 5,000 -540 Descending FlightAware
01:31AM 43.7200 -80.0250 139° Southeast 228 262 5,000  Level FlightAware
01:31AM 43.6950 -79.9950 139° Southeast 228 262 5,000  Level FlightAware
01:32AM 43.6750 -79.9710 139° Southeast 228 262 5,000 -480 Level FlightAware
01:32AM 43.6520 -79.9430 139° Southeast 216 249 4,600 -840 Descending FlightAware
01:32AM 43.6410 -79.9290 137° Southeast 207 238 4,400 -960 Descending FlightAware
01:33AM 43.6200 -79.9040 139° Southeast 201 231 3,900 -1,020 Descending FlightAware
01:33AM 43.6020 -79.8830 140° Southeast 201 231 3,500 -1,020 Descending FlightAware
01:34AM 43.5820 -79.8560 136° Southeast 193 222 3,000 -780 Descending FlightAware
01:34AM 43.5790 -79.8450 111° Southeast 190 219 3,000  Level FlightAware
01:35AM 43.5820 -79.8110 83° East 172 198 3,000  Level FlightAware
01:35AM 43.5860 -79.7960 70° East 170 196 3,000 -240 Level FlightAware
01:35AM 43.5930 -79.7830 53° Northeast 166 191 2,900 -780 Descending FlightAware
01:35AM 43.6050 -79.7640 49° Northeast 152 175 2,500 -900 Descending FlightAware
01:36AM 43.6100 -79.7570 45° Northeast 143 165 2,400 -780 Descending FlightAware
01:36AM 43.6230 -79.7390 45° Northeast 123 142 2,000 -720 Descending FlightAware
01:37AM 43.6340 -79.7230 46° Northeast 118 136 1,700 -540 Descending FlightAware
01:37AM 43.6390 -79.7150 49° Northeast 114 131 1,600 -540 Descending FlightAware
01:37AM 43.6500 -79.6990 46° Northeast 111 128 1,300 -720 Descending FlightAware
01:38AM 43.6560 -79.6910 44° Northeast 114 131 1,100 -600 Descending FlightAware
01:38AM 43.6650 -79.6770 48° Northeast 121 139 900 -480 Descending FlightAware
01:38AM 43.6690 -79.6710 47° Northeast 121 139 800 -360 Descending FlightAware
01:39AM 43.6830 -79.6530 43° Northeast 121 139 600 -360 Descending FlightAware